Clinchfield, GA

12:30 AM EDT on September 02, 2014 (GMT -0400)
Lake Joy Village | Change Station
CLOSE
Current Station
Personal Weather Station
Location: Perry, GA
Elevation: 351 ft
Nearby Weather Stations

Elev 351 ft 32.52 °N, 83.70 °W | Updated 4 seconds ago

Clear
Clear
74.5 °F
Feels Like 74 °F
N
0.0
Wind Variable Wind from South
Gusts 0.0 mph

Today
High -- | Low -- °F
--% Chance of Precip.
Yesterday
High -- | Low -- °F
Precip. -- in
7:10 AM 7:57 PM
Waxing Crescent, 47% visible
Pressure 30.08 in
Visibility 10.0 miles
Clouds Clear
Heat Index 74 °F
Dew Point 71 °F
Humidity 88%
Rainfall 0.00 in
Snow Depth Not available.
UV 0 out of 12
Pollen 8.40 out of 12
Air Quality Not available.
Flu Activity Not available.
METAR KWRB 020358Z AUTO 19002KT 10SM CLR 23/22 A3008 RMK AO2 LTG DSNT SE RAE0327DZB0327E0334 SLP186 P0001 T02320223 $

More Conditions Fewer Conditions

Pressure 30.08 in
Visibility 10.0 miles
Clouds Clear
Heat Index 74 °F
Dew Point 71 °F
Humidity 88%
Rainfall 0.00 in
Snow Depth Not available.
UV 0 out of 12
Pollen 8.40 out of 12
Air Quality Not available.
Flu Activity Not available.
METAR KWRB 020358Z AUTO 19002KT 10SM CLR 23/22 A3008 RMK AO2 LTG DSNT SE RAE0327DZB0327E0334 SLP186 P0001 T02320223 $

More Conditions Fewer Conditions

10-Day Weather Forecast

Almanac

Astronomy

Sep. 02, 2014 Rise Set
Actual Time 7:10 AM EDT 7:57 PM EDT
Civil Twilight 6:45 AM EDT 8:22 PM EDT
Nautical Twilight 6:16 AM EDT 8:52 PM EDT
Astronomical Twilight 5:45 AM EDT 9:22 PM EDT
Moon 2:29 PM EDT 12:22 AM EDT
Length of Visible Light 13h 37m
Length of Day
12h 47m
Tomorrow will be 1m 53s shorter.
Waxing Crescent, 47% of the Moon is Illuminated
Today
Waxing Crescent
Sep 2
First Quarter
Sep 8
Full
Sep 15
Last Quarter
Sep 24
New

Yesterday's Extremes

State Highs State Lows

Community

WunderPhotos

Upload Photos

1,749,566 photos uploaded!

WunderBlogs® & News

Nearby

Snow Depth

Station Depth Elevation
No new snow has been reported.

Earthquake Activity

City Distance Mag. Time & Date
No recent earthquake activity has been reported nearby.
Minimum magnitude displayed is 2.5.

Coastal Water Temperatures

Place Temperature
No Stations Reporting

Nearby Weather Stations